Weather at Francisco de Sá Carneiro Airport

Public forecast

Using degrees Celsius for public forecast. Weather courtesy of forecast.io.

Current aviation weather report (METAR) for Francisco de Sá Carneiro Airport

Report is more than 6 hours old.

2022/11/14 15:30 (retrieved 2 years ago)

LPPR 141530Z 19009KT 9999 -RA SCT012 FEW016TCU BKN020 17/14 Q1017

Aviation forecast (TAF) for Francisco de Sá Carneiro Airport

Forecast is more than 12 hours old.

2023/02/22 18:18 (retrieved 1 year ago)

TAF LPPR 221700Z 2218/2318 33013KT 9999 SCT015 BECMG 2303/2305 36007KT BECMG 2309/2312 33013KT SCT030 PROB40 TEMPO 2312/2316 8000 SHRA BKN015 FEW025TCU